sensor_id;sensor_type;location;lat;lon;timestamp;P1;durP1;ratioP1;P2;durP2;ratioP2
44189;SDS011;29856;52.144;5.430;2023-04-16T00:01:04;20.15;;;4.32;;
44189;SDS011;29856;52.144;5.430;2023-04-16T00:03:29;12.13;;;3.47;;
44189;SDS011;29856;52.144;5.430;2023-04-16T00:05:55;14.10;;;3.60;;
44189;SDS011;29856;52.144;5.430;2023-04-16T00:08:21;17.23;;;3.95;;
44189;SDS011;29856;52.144;5.430;2023-04-16T00:10:47;9.23;;;2.70;;
44189;SDS011;29856;52.144;5.430;2023-04-16T00:13:12;13.55;;;3.30;;
44189;SDS011;29856;52.144;5.430;2023-04-16T00:15:38;13.50;;;3.70;;
44189;SDS011;29856;52.144;5.430;2023-04-16T00:18:03;16.63;;;4.35;;
44189;SDS011;29856;52.144;5.430;2023-04-16T00:20:29;13.52;;;3.17;;
44189;SDS011;29856;52.144;5.430;2023-04-16T00:22:54;14.57;;;3.42;;
44189;SDS011;29856;52.144;5.430;2023-04-16T00:25:19;9.80;;;3.45;;
44189;SDS011;29856;52.144;5.430;2023-04-16T00:27:45;19.33;;;4.32;;
44189;SDS011;29856;52.144;5.430;2023-04-16T00:30:10;20.67;;;4.40;;
44189;SDS011;29856;52.144;5.430;2023-04-16T00:32:36;15.90;;;5.00;;
44189;SDS011;29856;52.144;5.430;2023-04-16T00:35:02;17.17;;;4.68;;
44189;SDS011;29856;52.144;5.430;2023-04-16T00:37:27;16.08;;;4.28;;
44189;SDS011;29856;52.144;5.430;2023-04-16T00:39:54;16.67;;;4.55;;
44189;SDS011;29856;52.144;5.430;2023-04-16T00:42:19;14.20;;;4.15;;
44189;SDS011;29856;52.144;5.430;2023-04-16T00:44:44;16.58;;;5.05;;
44189;SDS011;29856;52.144;5.430;2023-04-16T00:47:10;17.83;;;4.75;;
44189;SDS011;29856;52.144;5.430;2023-04-16T00:49:36;21.77;;;4.43;;
44189;SDS011;29856;52.144;5.430;2023-04-16T00:52:01;21.92;;;6.35;;
44189;SDS011;29856;52.144;5.430;2023-04-16T00:54:27;21.63;;;5.75;;
44189;SDS011;29856;52.144;5.430;2023-04-16T00:56:53;19.58;;;5.53;;
44189;SDS011;29856;52.144;5.430;2023-04-16T00:59:19;15.02;;;5.18;;
44189;SDS011;29856;52.144;5.430;2023-04-16T01:01:45;21.42;;;5.97;;
44189;SDS011;29856;52.144;5.430;2023-04-16T01:04:11;18.25;;;5.00;;
44189;SDS011;29856;52.144;5.430;2023-04-16T01:06:36;24.48;;;6.18;;
44189;SDS011;29856;52.144;5.430;2023-04-16T01:09:02;22.67;;;6.55;;
44189;SDS011;29856;52.144;5.430;2023-04-16T01:11:27;23.60;;;5.80;;
44189;SDS011;29856;52.144;5.430;2023-04-16T01:13:53;20.05;;;6.15;;
44189;SDS011;29856;52.144;5.430;2023-04-16T01:16:18;23.98;;;6.75;;
44189;SDS011;29856;52.144;5.430;2023-04-16T01:18:44;19.13;;;5.75;;
44189;SDS011;29856;52.144;5.430;2023-04-16T01:21:09;26.48;;;6.47;;
44189;SDS011;29856;52.144;5.430;2023-04-16T01:23:35;27.55;;;6.18;;
44189;SDS011;29856;52.144;5.430;2023-04-16T01:26:00;16.30;;;5.40;;
44189;SDS011;29856;52.144;5.430;2023-04-16T01:28:26;20.80;;;6.05;;
44189;SDS011;29856;52.144;5.430;2023-04-16T01:30:51;19.08;;;5.13;;
44189;SDS011;29856;52.144;5.430;2023-04-16T01:33:17;19.55;;;5.95;;
44189;SDS011;29856;52.144;5.430;2023-04-16T01:35:42;28.30;;;7.10;;
44189;SDS011;29856;52.144;5.430;2023-04-16T01:38:08;16.08;;;6.90;;
44189;SDS011;29856;52.144;5.430;2023-04-16T01:40:34;25.08;;;6.65;;
44189;SDS011;29856;52.144;5.430;2023-04-16T01:43:00;18.27;;;6.53;;
44189;SDS011;29856;52.144;5.430;2023-04-16T01:45:26;19.55;;;5.63;;
44189;SDS011;29856;52.144;5.430;2023-04-16T01:47:52;22.35;;;6.82;;
44189;SDS011;29856;52.144;5.430;2023-04-16T01:50:18;26.02;;;6.53;;
44189;SDS011;29856;52.144;5.430;2023-04-16T01:52:44;28.45;;;7.68;;
44189;SDS011;29856;52.144;5.430;2023-04-16T01:55:10;24.85;;;6.80;;
44189;SDS011;29856;52.144;5.430;2023-04-16T01:57:35;27.73;;;7.07;;
44189;SDS011;29856;52.144;5.430;2023-04-16T02:00:01;24.00;;;7.82;;
44189;SDS011;29856;52.144;5.430;2023-04-16T02:02:28;27.15;;;8.23;;
44189;SDS011;29856;52.144;5.430;2023-04-16T02:04:54;26.70;;;8.00;;
44189;SDS011;29856;52.144;5.430;2023-04-16T02:07:20;25.98;;;8.98;;
44189;SDS011;29856;52.144;5.430;2023-04-16T02:09:46;29.30;;;8.60;;
44189;SDS011;29856;52.144;5.430;2023-04-16T02:12:11;26.67;;;11.43;;
44189;SDS011;29856;52.144;5.430;2023-04-16T02:14:36;30.25;;;9.68;;
44189;SDS011;29856;52.144;5.430;2023-04-16T02:17:02;24.13;;;8.10;;
44189;SDS011;29856;52.144;5.430;2023-04-16T02:19:28;30.27;;;10.07;;
44189;SDS011;29856;52.144;5.430;2023-04-16T02:21:54;32.38;;;10.93;;
44189;SDS011;29856;52.144;5.430;2023-04-16T02:24:19;39.42;;;11.48;;
44189;SDS011;29856;52.144;5.430;2023-04-16T02:26:46;32.75;;;11.50;;
44189;SDS011;29856;52.144;5.430;2023-04-16T02:29:11;28.35;;;10.27;;
44189;SDS011;29856;52.144;5.430;2023-04-16T02:31:37;28.15;;;11.40;;
44189;SDS011;29856;52.144;5.430;2023-04-16T02:34:03;31.02;;;10.98;;
44189;SDS011;29856;52.144;5.430;2023-04-16T02:36:29;29.63;;;11.82;;
44189;SDS011;29856;52.144;5.430;2023-04-16T02:38:55;36.20;;;13.02;;
44189;SDS011;29856;52.144;5.430;2023-04-16T02:41:20;24.35;;;11.63;;
44189;SDS011;29856;52.144;5.430;2023-04-16T02:43:45;33.40;;;12.48;;
44189;SDS011;29856;52.144;5.430;2023-04-16T02:46:11;31.40;;;11.75;;
44189;SDS011;29856;52.144;5.430;2023-04-16T02:48:36;24.20;;;10.50;;
44189;SDS011;29856;52.144;5.430;2023-04-16T02:51:02;30.02;;;12.10;;
44189;SDS011;29856;52.144;5.430;2023-04-16T02:53:27;30.25;;;11.43;;
44189;SDS011;29856;52.144;5.430;2023-04-16T02:55:53;35.67;;;13.02;;
44189;SDS011;29856;52.144;5.430;2023-04-16T02:58:19;36.22;;;13.40;;
44189;SDS011;29856;52.144;5.430;2023-04-16T03:00:46;36.55;;;13.40;;
44189;SDS011;29856;52.144;5.430;2023-04-16T03:03:12;34.05;;;13.20;;
44189;SDS011;29856;52.144;5.430;2023-04-16T03:05:38;35.45;;;11.70;;
44189;SDS011;29856;52.144;5.430;2023-04-16T03:08:03;29.70;;;12.45;;
44189;SDS011;29856;52.144;5.430;2023-04-16T03:10:29;37.88;;;13.95;;
44189;SDS011;29856;52.144;5.430;2023-04-16T03:12:55;32.53;;;11.18;;
44189;SDS011;29856;52.144;5.430;2023-04-16T03:15:20;34.53;;;14.57;;
44189;SDS011;29856;52.144;5.430;2023-04-16T03:17:46;32.60;;;14.35;;
44189;SDS011;29856;52.144;5.430;2023-04-16T03:20:11;38.65;;;15.43;;
44189;SDS011;29856;52.144;5.430;2023-04-16T03:22:40;31.52;;;13.40;;
44189;SDS011;29856;52.144;5.430;2023-04-16T03:25:05;36.25;;;14.57;;
44189;SDS011;29856;52.144;5.430;2023-04-16T03:27:31;34.30;;;12.15;;
44189;SDS011;29856;52.144;5.430;2023-04-16T03:29:57;32.67;;;12.65;;
44189;SDS011;29856;52.144;5.430;2023-04-16T03:32:23;29.58;;;12.93;;
44189;SDS011;29856;52.144;5.430;2023-04-16T03:34:48;21.15;;;9.32;;
44189;SDS011;29856;52.144;5.430;2023-04-16T03:37:13;30.48;;;12.85;;
44189;SDS011;29856;52.144;5.430;2023-04-16T03:39:39;26.90;;;11.30;;
44189;SDS011;29856;52.144;5.430;2023-04-16T03:42:04;29.20;;;13.00;;
44189;SDS011;29856;52.144;5.430;2023-04-16T03:44:30;32.85;;;13.35;;
44189;SDS011;29856;52.144;5.430;2023-04-16T03:46:55;23.52;;;9.23;;
44189;SDS011;29856;52.144;5.430;2023-04-16T03:49:21;31.65;;;12.43;;
44189;SDS011;29856;52.144;5.430;2023-04-16T03:51:46;23.05;;;10.05;;
44189;SDS011;29856;52.144;5.430;2023-04-16T03:54:12;25.90;;;11.02;;
44189;SDS011;29856;52.144;5.430;2023-04-16T03:56:40;27.83;;;11.65;;
44189;SDS011;29856;52.144;5.430;2023-04-16T03:59:06;25.55;;;11.70;;
44189;SDS011;29856;52.144;5.430;2023-04-16T04:01:31;26.88;;;10.02;;
44189;SDS011;29856;52.144;5.430;2023-04-16T04:03:57;33.33;;;13.70;;
44189;SDS011;29856;52.144;5.430;2023-04-16T04:06:22;28.67;;;12.98;;
44189;SDS011;29856;52.144;5.430;2023-04-16T04:08:48;24.58;;;12.80;;
44189;SDS011;29856;52.144;5.430;2023-04-16T04:11:13;26.80;;;11.95;;
44189;SDS011;29856;52.144;5.430;2023-04-16T04:13:39;35.50;;;12.85;;
44189;SDS011;29856;52.144;5.430;2023-04-16T04:16:04;31.05;;;13.98;;
44189;SDS011;29856;52.144;5.430;2023-04-16T04:18:30;31.63;;;13.85;;
44189;SDS011;29856;52.144;5.430;2023-04-16T04:20:56;29.85;;;12.43;;
44189;SDS011;29856;52.144;5.430;2023-04-16T04:23:21;34.22;;;13.88;;
44189;SDS011;29856;52.144;5.430;2023-04-16T04:25:47;29.30;;;12.27;;
44189;SDS011;29856;52.144;5.430;2023-04-16T04:28:12;27.33;;;12.80;;
44189;SDS011;29856;52.144;5.430;2023-04-16T04:30:38;30.05;;;13.68;;
44189;SDS011;29856;52.144;5.430;2023-04-16T04:33:03;30.48;;;13.63;;
44189;SDS011;29856;52.144;5.430;2023-04-16T04:35:29;29.60;;;12.43;;
44189;SDS011;29856;52.144;5.430;2023-04-16T04:37:54;28.27;;;11.90;;
44189;SDS011;29856;52.144;5.430;2023-04-16T04:40:20;34.65;;;12.98;;
44189;SDS011;29856;52.144;5.430;2023-04-16T04:42:45;33.58;;;13.73;;
44189;SDS011;29856;52.144;5.430;2023-04-16T04:45:10;28.90;;;12.13;;
44189;SDS011;29856;52.144;5.430;2023-04-16T04:47:36;33.45;;;11.32;;
44189;SDS011;29856;52.144;5.430;2023-04-16T04:50:02;34.63;;;11.70;;
44189;SDS011;29856;52.144;5.430;2023-04-16T04:52:28;37.35;;;14.00;;
44189;SDS011;29856;52.144;5.430;2023-04-16T04:54:53;24.70;;;11.60;;
44189;SDS011;29856;52.144;5.430;2023-04-16T04:57:18;26.05;;;11.05;;
44189;SDS011;29856;52.144;5.430;2023-04-16T04:59:47;33.40;;;14.18;;
44189;SDS011;29856;52.144;5.430;2023-04-16T05:02:24;28.65;;;11.93;;
44189;SDS011;29856;52.144;5.430;2023-04-16T05:04:50;29.55;;;12.20;;
44189;SDS011;29856;52.144;5.430;2023-04-16T05:07:15;38.10;;;14.40;;
44189;SDS011;29856;52.144;5.430;2023-04-16T05:09:41;37.40;;;13.43;;
44189;SDS011;29856;52.144;5.430;2023-04-16T05:12:06;29.52;;;13.20;;
44189;SDS011;29856;52.144;5.430;2023-04-16T05:14:32;31.83;;;13.10;;
44189;SDS011;29856;52.144;5.430;2023-04-16T05:16:57;25.85;;;13.27;;
44189;SDS011;29856;52.144;5.430;2023-04-16T05:19:23;28.20;;;11.30;;
44189;SDS011;29856;52.144;5.430;2023-04-16T05:21:48;32.55;;;12.57;;
44189;SDS011;29856;52.144;5.430;2023-04-16T05:24:14;28.73;;;11.80;;
44189;SDS011;29856;52.144;5.430;2023-04-16T05:26:39;28.95;;;13.07;;
44189;SDS011;29856;52.144;5.430;2023-04-16T05:29:04;31.60;;;13.10;;
44189;SDS011;29856;52.144;5.430;2023-04-16T05:31:30;30.27;;;12.57;;
44189;SDS011;29856;52.144;5.430;2023-04-16T05:33:55;36.22;;;12.27;;
44189;SDS011;29856;52.144;5.430;2023-04-16T05:36:21;37.20;;;13.65;;
44189;SDS011;29856;52.144;5.430;2023-04-16T05:38:46;34.40;;;13.98;;
44189;SDS011;29856;52.144;5.430;2023-04-16T05:41:12;29.45;;;13.88;;
44189;SDS011;29856;52.144;5.430;2023-04-16T05:43:37;31.40;;;12.20;;
44189;SDS011;29856;52.144;5.430;2023-04-16T05:46:02;30.08;;;13.40;;
44189;SDS011;29856;52.144;5.430;2023-04-16T05:48:28;30.92;;;11.82;;
44189;SDS011;29856;52.144;5.430;2023-04-16T05:50:54;25.60;;;12.23;;
44189;SDS011;29856;52.144;5.430;2023-04-16T05:53:19;32.60;;;13.00;;
44189;SDS011;29856;52.144;5.430;2023-04-16T05:55:44;37.92;;;14.07;;
44189;SDS011;29856;52.144;5.430;2023-04-16T05:58:10;28.50;;;12.15;;
44189;SDS011;29856;52.144;5.430;2023-04-16T06:00:35;34.00;;;13.95;;
44189;SDS011;29856;52.144;5.430;2023-04-16T06:03:01;38.05;;;14.35;;
44189;SDS011;29856;52.144;5.430;2023-04-16T06:05:27;33.72;;;13.38;;
44189;SDS011;29856;52.144;5.430;2023-04-16T06:07:53;26.98;;;11.52;;
44189;SDS011;29856;52.144;5.430;2023-04-16T06:10:18;35.45;;;14.73;;
44189;SDS011;29856;52.144;5.430;2023-04-16T06:12:44;26.67;;;12.40;;
44189;SDS011;29856;52.144;5.430;2023-04-16T06:15:09;34.22;;;13.80;;
44189;SDS011;29856;52.144;5.430;2023-04-16T06:17:35;38.05;;;14.13;;
44189;SDS011;29856;52.144;5.430;2023-04-16T06:20:00;26.67;;;13.88;;
44189;SDS011;29856;52.144;5.430;2023-04-16T06:22:26;32.05;;;14.73;;
44189;SDS011;29856;52.144;5.430;2023-04-16T06:24:52;36.63;;;15.07;;
44189;SDS011;29856;52.144;5.430;2023-04-16T06:27:17;32.50;;;13.98;;
44189;SDS011;29856;52.144;5.430;2023-04-16T06:29:43;25.83;;;10.80;;
44189;SDS011;29856;52.144;5.430;2023-04-16T06:32:08;27.48;;;12.18;;
44189;SDS011;29856;52.144;5.430;2023-04-16T06:34:34;33.88;;;14.68;;
44189;SDS011;29856;52.144;5.430;2023-04-16T06:36:59;29.98;;;15.18;;
44189;SDS011;29856;52.144;5.430;2023-04-16T06:39:25;33.83;;;15.95;;
44189;SDS011;29856;52.144;5.430;2023-04-16T06:41:50;25.20;;;13.25;;
44189;SDS011;29856;52.144;5.430;2023-04-16T06:44:16;33.90;;;16.80;;
44189;SDS011;29856;52.144;5.430;2023-04-16T06:46:41;37.03;;;15.85;;
44189;SDS011;29856;52.144;5.430;2023-04-16T06:49:07;30.23;;;13.63;;
44189;SDS011;29856;52.144;5.430;2023-04-16T06:51:32;30.00;;;14.90;;
44189;SDS011;29856;52.144;5.430;2023-04-16T06:53:58;31.40;;;15.43;;
44189;SDS011;29856;52.144;5.430;2023-04-16T06:56:23;32.88;;;16.67;;
44189;SDS011;29856;52.144;5.430;2023-04-16T06:58:49;36.90;;;16.08;;
44189;SDS011;29856;52.144;5.430;2023-04-16T07:01:18;26.85;;;16.13;;
44189;SDS011;29856;52.144;5.430;2023-04-16T07:03:44;37.00;;;16.67;;
44189;SDS011;29856;52.144;5.430;2023-04-16T07:06:09;35.47;;;17.80;;
44189;SDS011;29856;52.144;5.430;2023-04-16T07:08:35;34.92;;;18.92;;
44189;SDS011;29856;52.144;5.430;2023-04-16T07:11:00;36.88;;;18.75;;
44189;SDS011;29856;52.144;5.430;2023-04-16T07:13:26;39.45;;;20.65;;
44189;SDS011;29856;52.144;5.430;2023-04-16T07:15:51;36.33;;;18.88;;
44189;SDS011;29856;52.144;5.430;2023-04-16T07:18:17;34.72;;;19.42;;
44189;SDS011;29856;52.144;5.430;2023-04-16T07:20:43;33.40;;;19.33;;
44189;SDS011;29856;52.144;5.430;2023-04-16T07:23:08;33.83;;;18.52;;
44189;SDS011;29856;52.144;5.430;2023-04-16T07:25:34;34.78;;;16.50;;
44189;SDS011;29856;52.144;5.430;2023-04-16T07:28:00;33.90;;;14.25;;
44189;SDS011;29856;52.144;5.430;2023-04-16T07:30:26;30.52;;;16.27;;
44189;SDS011;29856;52.144;5.430;2023-04-16T07:32:52;37.15;;;16.58;;
44189;SDS011;29856;52.144;5.430;2023-04-16T07:35:17;29.67;;;16.67;;
44189;SDS011;29856;52.144;5.430;2023-04-16T07:37:43;31.63;;;15.55;;
44189;SDS011;29856;52.144;5.430;2023-04-16T07:40:08;34.63;;;16.80;;
44189;SDS011;29856;52.144;5.430;2023-04-16T07:42:34;31.65;;;15.20;;
44189;SDS011;29856;52.144;5.430;2023-04-16T07:44:59;30.70;;;15.75;;
44189;SDS011;29856;52.144;5.430;2023-04-16T07:47:25;32.05;;;16.45;;
44189;SDS011;29856;52.144;5.430;2023-04-16T07:49:50;31.00;;;14.55;;
44189;SDS011;29856;52.144;5.430;2023-04-16T07:52:16;28.65;;;14.13;;
44189;SDS011;29856;52.144;5.430;2023-04-16T07:54:42;27.88;;;15.32;;
44189;SDS011;29856;52.144;5.430;2023-04-16T07:57:07;33.33;;;15.77;;
44189;SDS011;29856;52.144;5.430;2023-04-16T07:59:33;32.97;;;14.73;;
44189;SDS011;29856;52.144;5.430;2023-04-16T08:01:58;26.17;;;14.98;;
44189;SDS011;29856;52.144;5.430;2023-04-16T08:04:24;26.98;;;12.75;;
44189;SDS011;29856;52.144;5.430;2023-04-16T08:06:50;26.85;;;14.73;;
44189;SDS011;29856;52.144;5.430;2023-04-16T08:09:15;24.13;;;14.27;;
44189;SDS011;29856;52.144;5.430;2023-04-16T08:11:41;21.95;;;12.32;;
44189;SDS011;29856;52.144;5.430;2023-04-16T08:14:06;20.77;;;13.10;;
44189;SDS011;29856;52.144;5.430;2023-04-16T08:16:32;21.75;;;12.43;;
44189;SDS011;29856;52.144;5.430;2023-04-16T08:18:57;22.05;;;12.02;;
44189;SDS011;29856;52.144;5.430;2023-04-16T08:21:23;20.83;;;12.00;;
44189;SDS011;29856;52.144;5.430;2023-04-16T08:23:48;17.98;;;11.13;;
44189;SDS011;29856;52.144;5.430;2023-04-16T08:26:14;19.80;;;10.63;;
44189;SDS011;29856;52.144;5.430;2023-04-16T08:28:39;20.05;;;11.35;;
44189;SDS011;29856;52.144;5.430;2023-04-16T08:31:05;20.63;;;11.10;;
44189;SDS011;29856;52.144;5.430;2023-04-16T08:33:30;16.23;;;9.90;;
44189;SDS011;29856;52.144;5.430;2023-04-16T08:35:56;17.63;;;8.90;;
44189;SDS011;29856;52.144;5.430;2023-04-16T08:38:21;14.93;;;9.95;;
44189;SDS011;29856;52.144;5.430;2023-04-16T08:40:47;16.23;;;8.98;;
44189;SDS011;29856;52.144;5.430;2023-04-16T08:43:15;14.32;;;8.52;;
44189;SDS011;29856;52.144;5.430;2023-04-16T08:45:43;17.02;;;8.75;;
44189;SDS011;29856;52.144;5.430;2023-04-16T08:48:11;14.18;;;8.50;;
44189;SDS011;29856;52.144;5.430;2023-04-16T08:50:36;12.70;;;7.80;;
44189;SDS011;29856;52.144;5.430;2023-04-16T08:53:05;13.48;;;7.82;;
44189;SDS011;29856;52.144;5.430;2023-04-16T08:55:35;12.93;;;7.35;;
44189;SDS011;29856;52.144;5.430;2023-04-16T08:58:05;12.60;;;7.18;;
44189;SDS011;29856;52.144;5.430;2023-04-16T09:00:36;10.18;;;7.30;;
44189;SDS011;29856;52.144;5.430;2023-04-16T09:03:02;12.35;;;7.65;;
44189;SDS011;29856;52.144;5.430;2023-04-16T09:05:28;7.68;;;5.72;;
44189;SDS011;29856;52.144;5.430;2023-04-16T09:07:54;11.25;;;7.13;;
44189;SDS011;29856;52.144;5.430;2023-04-16T09:10:20;16.05;;;8.55;;
44189;SDS011;29856;52.144;5.430;2023-04-16T09:12:46;11.80;;;7.65;;
44189;SDS011;29856;52.144;5.430;2023-04-16T09:15:12;13.88;;;8.15;;
44189;SDS011;29856;52.144;5.430;2023-04-16T09:17:38;10.13;;;7.82;;
44189;SDS011;29856;52.144;5.430;2023-04-16T09:20:04;12.60;;;7.25;;
44189;SDS011;29856;52.144;5.430;2023-04-16T09:22:31;12.25;;;8.18;;
44189;SDS011;29856;52.144;5.430;2023-04-16T09:24:56;18.38;;;8.00;;
44189;SDS011;29856;52.144;5.430;2023-04-16T09:27:22;12.25;;;7.40;;
44189;SDS011;29856;52.144;5.430;2023-04-16T09:29:49;14.52;;;8.65;;
44189;SDS011;29856;52.144;5.430;2023-04-16T09:32:14;14.93;;;7.55;;
44189;SDS011;29856;52.144;5.430;2023-04-16T09:35:13;12.15;;;7.50;;
44189;SDS011;29856;52.144;5.430;2023-04-16T09:37:32;15.77;;;9.02;;
44189;SDS011;29856;52.144;5.430;2023-04-16T09:39:58;13.90;;;7.95;;
44189;SDS011;29856;52.144;5.430;2023-04-16T09:42:29;16.52;;;8.35;;
44189;SDS011;29856;52.144;5.430;2023-04-16T09:44:56;17.88;;;8.48;;
44189;SDS011;29856;52.144;5.430;2023-04-16T09:47:24;14.02;;;8.02;;
44189;SDS011;29856;52.144;5.430;2023-04-16T09:49:50;18.92;;;8.00;;
44189;SDS011;29856;52.144;5.430;2023-04-16T09:52:20;17.85;;;9.30;;
44189;SDS011;29856;52.144;5.430;2023-04-16T09:54:50;15.00;;;9.05;;
44189;SDS011;29856;52.144;5.430;2023-04-16T09:57:20;19.88;;;9.88;;
44189;SDS011;29856;52.144;5.430;2023-04-16T09:59:46;20.58;;;10.05;;
44189;SDS011;29856;52.144;5.430;2023-04-16T10:02:12;19.38;;;9.57;;
44189;SDS011;29856;52.144;5.430;2023-04-16T10:04:45;22.05;;;11.23;;
44189;SDS011;29856;52.144;5.430;2023-04-16T10:07:12;17.80;;;9.45;;
44189;SDS011;29856;52.144;5.430;2023-04-16T10:09:38;16.00;;;8.85;;
44189;SDS011;29856;52.144;5.430;2023-04-16T10:12:04;15.63;;;9.13;;
44189;SDS011;29856;52.144;5.430;2023-04-16T10:14:30;20.35;;;11.63;;
44189;SDS011;29856;52.144;5.430;2023-04-16T10:16:55;21.58;;;13.07;;
44189;SDS011;29856;52.144;5.430;2023-04-16T10:19:22;27.65;;;13.27;;
44189;SDS011;29856;52.144;5.430;2023-04-16T10:21:52;26.23;;;12.70;;
44189;SDS011;29856;52.144;5.430;2023-04-16T10:24:18;25.33;;;13.55;;
44189;SDS011;29856;52.144;5.430;2023-04-16T10:26:44;26.70;;;12.20;;
44189;SDS011;29856;52.144;5.430;2023-04-16T10:29:11;22.73;;;12.77;;
44189;SDS011;29856;52.144;5.430;2023-04-16T10:31:36;31.45;;;14.02;;
44189;SDS011;29856;52.144;5.430;2023-04-16T10:34:03;25.08;;;13.32;;
44189;SDS011;29856;52.144;5.430;2023-04-16T10:36:33;29.65;;;12.85;;
44189;SDS011;29856;52.144;5.430;2023-04-16T10:39:00;25.88;;;14.02;;
44189;SDS011;29856;52.144;5.430;2023-04-16T10:41:26;23.95;;;12.80;;
44189;SDS011;29856;52.144;5.430;2023-04-16T10:43:52;30.33;;;12.75;;
44189;SDS011;29856;52.144;5.430;2023-04-16T10:46:31;21.33;;;12.93;;
44189;SDS011;29856;52.144;5.430;2023-04-16T10:49:01;26.48;;;12.05;;
44189;SDS011;29856;52.144;5.430;2023-04-16T10:51:36;25.35;;;13.05;;
44189;SDS011;29856;52.144;5.430;2023-04-16T10:54:02;25.55;;;11.73;;
44189;SDS011;29856;52.144;5.430;2023-04-16T10:56:34;24.40;;;12.48;;
44189;SDS011;29856;52.144;5.430;2023-04-16T10:59:04;23.85;;;11.15;;
44189;SDS011;29856;52.144;5.430;2023-04-16T11:03:57;25.10;;;11.88;;
44189;SDS011;29856;52.144;5.430;2023-04-16T11:06:23;26.20;;;13.20;;
44189;SDS011;29856;52.144;5.430;2023-04-16T11:08:50;22.67;;;10.85;;
44189;SDS011;29856;52.144;5.430;2023-04-16T11:11:16;21.35;;;11.18;;
44189;SDS011;29856;52.144;5.430;2023-04-16T11:13:43;27.85;;;12.32;;
44189;SDS011;29856;52.144;5.430;2023-04-16T11:16:09;25.80;;;12.00;;
44189;SDS011;29856;52.144;5.430;2023-04-16T11:18:35;19.13;;;11.32;;
44189;SDS011;29856;52.144;5.430;2023-04-16T11:21:06;20.20;;;11.35;;
44189;SDS011;29856;52.144;5.430;2023-04-16T11:23:45;25.33;;;11.93;;
44189;SDS011;29856;52.144;5.430;2023-04-16T11:26:23;25.23;;;12.68;;
44189;SDS011;29856;52.144;5.430;2023-04-16T11:28:53;24.92;;;13.25;;
44189;SDS011;29856;52.144;5.430;2023-04-16T11:31:19;24.98;;;13.10;;
44189;SDS011;29856;52.144;5.430;2023-04-16T11:33:45;27.88;;;13.95;;
44189;SDS011;29856;52.144;5.430;2023-04-16T11:36:10;26.67;;;13.20;;
44189;SDS011;29856;52.144;5.430;2023-04-16T11:38:36;21.77;;;13.10;;
44189;SDS011;29856;52.144;5.430;2023-04-16T11:41:02;22.45;;;12.82;;
44189;SDS011;29856;52.144;5.430;2023-04-16T11:43:28;23.17;;;12.80;;
44189;SDS011;29856;52.144;5.430;2023-04-16T11:45:55;22.77;;;12.88;;
44189;SDS011;29856;52.144;5.430;2023-04-16T11:48:20;27.55;;;13.63;;
44189;SDS011;29856;52.144;5.430;2023-04-16T11:50:46;25.23;;;12.90;;
44189;SDS011;29856;52.144;5.430;2023-04-16T11:53:22;25.58;;;13.73;;
44189;SDS011;29856;52.144;5.430;2023-04-16T11:55:48;28.92;;;14.57;;
44189;SDS011;29856;52.144;5.430;2023-04-16T11:58:13;25.75;;;13.07;;
44189;SDS011;29856;52.144;5.430;2023-04-16T12:00:39;32.58;;;16.42;;
44189;SDS011;29856;52.144;5.430;2023-04-16T12:03:04;33.47;;;16.13;;
44189;SDS011;29856;52.144;5.430;2023-04-16T12:08:00;28.95;;;14.13;;
44189;SDS011;29856;52.144;5.430;2023-04-16T12:10:28;30.52;;;15.80;;
44189;SDS011;29856;52.144;5.430;2023-04-16T12:13:07;24.73;;;13.13;;
44189;SDS011;29856;52.144;5.430;2023-04-16T12:15:54;27.70;;;14.02;;
44189;SDS011;29856;52.144;5.430;2023-04-16T12:18:21;23.73;;;12.52;;
44189;SDS011;29856;52.144;5.430;2023-04-16T12:20:48;27.05;;;12.55;;
44189;SDS011;29856;52.144;5.430;2023-04-16T12:23:27;22.33;;;11.77;;
44189;SDS011;29856;52.144;5.430;2023-04-16T12:25:54;23.92;;;12.73;;
44189;SDS011;29856;52.144;5.430;2023-04-16T12:28:29;21.25;;;11.77;;
44189;SDS011;29856;52.144;5.430;2023-04-16T12:30:56;18.60;;;11.30;;
44189;SDS011;29856;52.144;5.430;2023-04-16T12:33:21;18.30;;;10.65;;
44189;SDS011;29856;52.144;5.430;2023-04-16T12:35:47;22.45;;;12.15;;
44189;SDS011;29856;52.144;5.430;2023-04-16T12:38:13;20.25;;;12.13;;
44189;SDS011;29856;52.144;5.430;2023-04-16T12:40:38;22.58;;;12.05;;
44189;SDS011;29856;52.144;5.430;2023-04-16T12:43:04;20.27;;;12.07;;
44189;SDS011;29856;52.144;5.430;2023-04-16T12:45:29;23.83;;;12.45;;
44189;SDS011;29856;52.144;5.430;2023-04-16T12:47:55;24.98;;;13.75;;
44189;SDS011;29856;52.144;5.430;2023-04-16T12:50:20;21.95;;;11.70;;
44189;SDS011;29856;52.144;5.430;2023-04-16T12:52:46;22.88;;;11.45;;
44189;SDS011;29856;52.144;5.430;2023-04-16T12:55:12;24.85;;;11.98;;
44189;SDS011;29856;52.144;5.430;2023-04-16T12:57:37;24.63;;;12.57;;
44189;SDS011;29856;52.144;5.430;2023-04-16T13:00:06;23.23;;;11.80;;
44189;SDS011;29856;52.144;5.430;2023-04-16T13:02:32;20.13;;;10.88;;
44189;SDS011;29856;52.144;5.430;2023-04-16T13:04:58;23.48;;;12.55;;
44189;SDS011;29856;52.144;5.430;2023-04-16T13:07:23;23.25;;;12.52;;
44189;SDS011;29856;52.144;5.430;2023-04-16T13:09:49;22.90;;;12.68;;
44189;SDS011;29856;52.144;5.430;2023-04-16T13:12:14;24.80;;;13.07;;
44189;SDS011;29856;52.144;5.430;2023-04-16T13:14:40;27.95;;;12.68;;
44189;SDS011;29856;52.144;5.430;2023-04-16T13:17:05;35.83;;;12.75;;
44189;SDS011;29856;52.144;5.430;2023-04-16T13:19:31;27.60;;;14.20;;
44189;SDS011;29856;52.144;5.430;2023-04-16T13:21:57;35.53;;;14.45;;
44189;SDS011;29856;52.144;5.430;2023-04-16T13:24:23;35.28;;;14.52;;
44189;SDS011;29856;52.144;5.430;2023-04-16T13:26:49;31.08;;;13.13;;
44189;SDS011;29856;52.144;5.430;2023-04-16T13:29:14;40.22;;;15.18;;
44189;SDS011;29856;52.144;5.430;2023-04-16T13:31:40;33.60;;;15.25;;
44189;SDS011;29856;52.144;5.430;2023-04-16T13:34:05;37.05;;;14.10;;
44189;SDS011;29856;52.144;5.430;2023-04-16T13:36:31;25.48;;;11.88;;
44189;SDS011;29856;52.144;5.430;2023-04-16T13:38:57;27.73;;;13.45;;
44189;SDS011;29856;52.144;5.430;2023-04-16T13:41:22;31.05;;;13.00;;
44189;SDS011;29856;52.144;5.430;2023-04-16T13:43:48;31.02;;;13.60;;
44189;SDS011;29856;52.144;5.430;2023-04-16T13:46:13;26.48;;;12.68;;
44189;SDS011;29856;52.144;5.430;2023-04-16T13:48:39;24.73;;;11.95;;
44189;SDS011;29856;52.144;5.430;2023-04-16T13:51:04;28.35;;;12.13;;
44189;SDS011;29856;52.144;5.430;2023-04-16T13:53:30;24.40;;;12.30;;
44189;SDS011;29856;52.144;5.430;2023-04-16T13:55:55;23.77;;;11.40;;
44189;SDS011;29856;52.144;5.430;2023-04-16T13:58:21;27.55;;;11.63;;
44189;SDS011;29856;52.144;5.430;2023-04-16T14:00:46;28.20;;;11.60;;
44189;SDS011;29856;52.144;5.430;2023-04-16T14:03:12;22.45;;;11.55;;
44189;SDS011;29856;52.144;5.430;2023-04-16T14:05:37;25.50;;;10.73;;
44189;SDS011;29856;52.144;5.430;2023-04-16T14:08:03;22.23;;;10.77;;
44189;SDS011;29856;52.144;5.430;2023-04-16T14:10:29;22.60;;;10.30;;
44189;SDS011;29856;52.144;5.430;2023-04-16T14:12:55;21.75;;;9.98;;
44189;SDS011;29856;52.144;5.430;2023-04-16T14:15:21;19.90;;;10.50;;
44189;SDS011;29856;52.144;5.430;2023-04-16T14:17:46;21.95;;;10.52;;
44189;SDS011;29856;52.144;5.430;2023-04-16T14:20:12;24.55;;;11.05;;
44189;SDS011;29856;52.144;5.430;2023-04-16T14:22:38;22.10;;;10.93;;
44189;SDS011;29856;52.144;5.430;2023-04-16T14:25:04;26.42;;;11.48;;